createdAt,value
2018-11-05T00:00:38.135Z,9.52
2018-11-05T00:04:02.948Z,9.59
2018-11-05T00:07:27.775Z,9.54
2018-11-05T00:10:52.611Z,9.52
2018-11-05T00:14:17.410Z,9.52
2018-11-05T00:17:42.209Z,9.37
2018-11-05T00:21:07.157Z,9.34
2018-11-05T00:24:32.099Z,9.42
2018-11-05T00:27:56.979Z,9.45
2018-11-05T00:31:21.831Z,9.47
2018-11-05T00:34:46.684Z,9.45
2018-11-05T00:38:11.549Z,9.56
2018-11-05T00:41:36.572Z,9.53
2018-11-05T00:45:01.386Z,9.57
2018-11-05T00:48:26.204Z,9.49
2018-11-05T00:51:51.055Z,9.57
2018-11-05T00:55:15.946Z,9.65
2018-11-05T00:58:40.841Z,9.64
2018-11-05T01:02:05.914Z,9.52
2018-11-05T01:05:30.717Z,9.47
2018-11-05T01:08:55.563Z,9.45
2018-11-05T01:12:20.524Z,9.53
2018-11-05T01:15:45.285Z,9.53
2018-11-05T01:19:11.090Z,9.45
2018-11-05T01:22:35.957Z,9.43
2018-11-05T01:26:00.791Z,9.30
2018-11-05T01:29:25.698Z,9.50
2018-11-05T01:32:50.489Z,9.25
2018-11-05T01:36:15.221Z,9.45
2018-11-05T01:39:40.011Z,9.28
2018-11-05T01:43:04.881Z,9.17
2018-11-05T01:46:29.641Z,9.16
2018-11-05T01:49:54.499Z,9.28
2018-11-05T01:53:19.392Z,9.17
2018-11-05T01:56:44.384Z,9.13
2018-11-05T02:00:13.198Z,9.23
2018-11-05T02:03:38.048Z,9.31
2018-11-05T02:07:02.932Z,9.27
2018-11-05T02:10:27.879Z,9.24
2018-11-05T02:13:52.530Z,9.30
2018-11-05T02:17:17.311Z,9.31
2018-11-05T02:20:42.148Z,9.54
2018-11-05T02:24:07.044Z,9.34
2018-11-05T02:27:32.047Z,9.20
2018-11-05T02:30:56.819Z,9.13
2018-11-05T02:34:21.737Z,9.07
2018-11-05T02:37:47.161Z,9.20
2018-11-05T02:41:12.038Z,9.23
2018-11-05T02:44:36.858Z,9.23
2018-11-05T02:48:01.778Z,9.19
2018-11-05T02:51:26.602Z,9.13
2018-11-05T02:54:51.391Z,9.19
2018-11-05T02:58:17.269Z,9.21
2018-11-05T03:01:42.047Z,9.16
2018-11-05T03:05:09.668Z,9.25
2018-11-05T03:08:34.512Z,9.14
2018-11-05T03:11:59.297Z,9.06
2018-11-05T03:15:24.085Z,9.17
2018-11-05T03:18:48.900Z,9.13
2018-11-05T03:22:13.708Z,9.14
2018-11-05T03:25:38.521Z,9.20
2018-11-05T03:29:03.351Z,9.20
2018-11-05T03:32:28.149Z,9.22
2018-11-05T03:35:53.102Z,9.08
2018-11-05T03:39:17.839Z,9.11
2018-11-05T03:42:43.233Z,9.03
2018-11-05T03:46:08.046Z,8.93
2018-11-05T03:49:32.917Z,8.77
2018-11-05T03:52:57.764Z,8.78
2018-11-05T03:56:22.691Z,8.77
2018-11-05T03:59:47.428Z,8.69
2018-11-05T04:03:12.220Z,8.77
2018-11-05T04:06:36.994Z,8.82
2018-11-05T04:10:01.873Z,8.98
2018-11-05T04:13:26.707Z,8.87
2018-11-05T04:16:51.506Z,9.01
2018-11-05T04:20:16.325Z,9.24
2018-11-05T04:23:41.263Z,9.06
2018-11-05T04:27:06.647Z,8.98
2018-11-05T04:30:31.503Z,8.95
2018-11-05T04:33:56.281Z,8.97
2018-11-05T04:37:21.078Z,9.12
2018-11-05T04:40:45.869Z,9.21
2018-11-05T04:44:10.904Z,9.20
2018-11-05T04:47:35.650Z,9.30
2018-11-05T04:51:00.527Z,9.30
2018-11-05T04:54:25.295Z,9.38
2018-11-05T04:57:50.037Z,9.13
2018-11-05T05:01:14.851Z,9.18
2018-11-05T05:04:39.826Z,9.22
2018-11-05T05:08:04.614Z,9.18
2018-11-05T05:11:29.449Z,9.10
2018-11-05T05:14:54.294Z,9.06
2018-11-05T05:18:19.076Z,9.19
2018-11-05T05:21:43.817Z,8.97
2018-11-05T05:25:08.683Z,8.99
2018-11-05T05:28:33.545Z,8.98
2018-11-05T05:31:58.307Z,8.78
2018-11-05T05:35:23.094Z,8.67
2018-11-05T05:38:47.868Z,8.53
2018-11-05T05:42:12.628Z,8.50
2018-11-05T05:45:37.380Z,8.38
2018-11-05T05:49:02.135Z,8.30
2018-11-05T05:52:26.868Z,8.18
2018-11-05T05:55:51.633Z,8.20
2018-11-05T05:59:16.355Z,8.14
2018-11-05T06:02:41.578Z,8.22
2018-11-05T06:06:07.330Z,8.20
2018-11-05T06:09:31.990Z,8.11
2018-11-05T06:12:56.658Z,8.17
2018-11-05T06:16:21.379Z,8.22
2018-11-05T06:19:46.209Z,8.22
2018-11-05T06:23:10.942Z,8.30
2018-11-05T06:26:35.735Z,8.22
2018-11-05T06:30:00.451Z,8.26
2018-11-05T06:33:25.193Z,8.84
2018-11-05T06:36:49.961Z,9.22
2018-11-05T06:40:17.595Z,9.05
2018-11-05T06:43:42.378Z,8.85
2018-11-05T06:47:07.194Z,8.66
2018-11-05T06:50:31.942Z,8.68
2018-11-05T06:53:56.736Z,8.95
2018-11-05T06:57:21.454Z,8.90
2018-11-05T07:00:46.209Z,9.08
2018-11-05T07:04:10.950Z,9.17
2018-11-05T07:07:35.809Z,9.29
2018-11-05T07:11:00.539Z,9.37
2018-11-05T07:14:25.302Z,9.50
2018-11-05T07:17:50.609Z,9.73
2018-11-05T07:21:15.296Z,9.85
2018-11-05T07:24:40.069Z,10.10
2018-11-05T07:28:04.828Z,10.27
2018-11-05T07:31:29.524Z,10.37
2018-11-05T07:34:54.247Z,10.53
2018-11-05T07:38:18.969Z,10.74
2018-11-05T07:41:43.662Z,10.83
2018-11-05T07:45:11.364Z,11.16
2018-11-05T07:48:36.067Z,11.16
2018-11-05T07:52:00.819Z,11.08
2018-11-05T07:55:25.564Z,11.30
2018-11-05T07:58:50.302Z,11.23
2018-11-05T08:02:15.033Z,11.45
2018-11-05T08:05:39.737Z,11.57
2018-11-05T08:09:06.304Z,11.52
2018-11-05T08:12:30.972Z,11.68
2018-11-05T08:15:55.754Z,11.87
2018-11-05T08:19:20.536Z,12.31
2018-11-05T08:22:45.269Z,12.59
2018-11-05T08:26:10.015Z,12.90
2018-11-05T08:29:34.719Z,13.29
2018-11-05T08:32:59.463Z,13.54
2018-11-05T08:36:24.165Z,13.70
2018-11-05T08:39:48.886Z,13.83
2018-11-05T08:43:13.562Z,13.82
2018-11-05T08:46:38.259Z,13.70
2018-11-05T08:50:03.091Z,13.73
2018-11-05T08:53:27.745Z,13.87
2018-11-05T08:56:52.472Z,14.04
2018-11-05T09:00:23.807Z,13.94
2018-11-05T09:03:50.270Z,14.01
2018-11-05T09:07:14.998Z,14.05
2018-11-05T09:10:39.903Z,14.17
2018-11-05T09:14:04.603Z,14.20
2018-11-05T09:17:29.353Z,14.30
2018-11-05T09:20:54.165Z,14.38
2018-11-05T09:24:18.864Z,14.43
2018-11-05T09:27:43.641Z,14.37
2018-11-05T09:31:08.373Z,14.56
2018-11-05T09:34:33.073Z,14.55
2018-11-05T09:37:57.887Z,14.74
2018-11-05T09:41:22.629Z,14.67
2018-11-05T09:44:47.541Z,14.69
2018-11-05T09:48:12.226Z,14.70
2018-11-05T09:51:37.386Z,14.72
2018-11-05T09:55:02.205Z,14.85
2018-11-05T09:58:26.940Z,14.73
2018-11-05T10:01:51.750Z,15.30
2018-11-05T10:05:24.168Z,15.54
2018-11-05T10:08:50.257Z,16.08
2018-11-05T10:12:15.594Z,16.20
2018-11-05T10:15:40.365Z,15.93
2018-11-05T10:19:05.104Z,16.03
2018-11-05T10:22:29.775Z,15.81
2018-11-05T10:25:54.468Z,15.80
2018-11-05T10:29:19.286Z,15.74
2018-11-05T10:32:44.401Z,15.40
2018-11-05T10:36:09.178Z,15.32
2018-11-05T10:39:33.883Z,15.43
2018-11-05T10:42:58.745Z,15.20
2018-11-05T10:46:23.567Z,15.30
2018-11-05T10:49:48.313Z,15.33
2018-11-05T10:53:13.048Z,15.41
2018-11-05T10:56:37.812Z,15.39
2018-11-05T11:00:02.525Z,15.30
2018-11-05T11:03:34.186Z,15.26
2018-11-05T11:06:59.024Z,15.52
2018-11-05T11:10:24.209Z,15.65
2018-11-05T11:13:48.868Z,15.53
2018-11-05T11:17:13.657Z,15.72
2018-11-05T11:20:38.918Z,15.89
2018-11-05T11:24:09.915Z,15.84
2018-11-05T11:27:34.698Z,15.60
2018-11-05T11:30:59.381Z,15.77
2018-11-05T11:34:24.821Z,15.70
2018-11-05T11:37:49.521Z,16.32
2018-11-05T11:41:14.246Z,16.57
2018-11-05T11:44:39.013Z,16.21
2018-11-05T11:48:03.655Z,16.44
2018-11-05T11:51:28.389Z,17.16
2018-11-05T11:54:53.177Z,17.85
2018-11-05T11:58:17.907Z,17.61
2018-11-05T12:01:47.773Z,17.19
2018-11-05T12:05:31.999Z,17.12
2018-11-05T12:08:56.690Z,17.09
2018-11-05T12:12:21.400Z,17.10
2018-11-05T12:15:46.124Z,17.02
2018-11-05T12:19:10.940Z,17.37
2018-11-05T12:22:35.660Z,17.50
2018-11-05T12:26:00.403Z,17.78
2018-11-05T12:29:25.185Z,18.23
2018-11-05T12:32:50.754Z,18.10
2018-11-05T12:36:15.498Z,17.91
2018-11-05T12:39:40.238Z,17.89
2018-11-05T12:43:05.001Z,18.04
2018-11-05T12:46:29.742Z,18.08
2018-11-05T12:49:54.432Z,18.32
2018-11-05T12:53:19.093Z,18.66
2018-11-05T12:56:43.885Z,18.17
2018-11-05T13:00:15.470Z,18.16
2018-11-05T13:03:40.199Z,18.28
2018-11-05T13:07:04.946Z,18.11
2018-11-05T13:10:29.669Z,18.17
2018-11-05T13:13:54.433Z,18.08
2018-11-05T13:17:19.169Z,18.21
2018-11-05T13:20:43.934Z,18.37
2018-11-05T13:24:08.714Z,18.70
2018-11-05T13:27:33.521Z,19.01
2018-11-05T13:30:58.392Z,18.81
2018-11-05T13:34:23.130Z,19.14
2018-11-05T13:37:48.388Z,19.71
2018-11-05T13:41:12.568Z,19.74
2018-11-05T13:44:37.519Z,19.35
2018-11-05T13:48:02.508Z,18.60
2018-11-05T13:51:26.979Z,18.16
2018-11-05T13:54:52.847Z,18.16
2018-11-05T13:58:23.314Z,18.50
2018-11-05T14:01:49.895Z,18.24
2018-11-05T14:05:14.771Z,18.30
2018-11-05T14:08:39.485Z,18.33
2018-11-05T14:12:04.188Z,17.77
2018-11-05T14:15:28.952Z,17.94
2018-11-05T14:18:53.958Z,18.15
2018-11-05T14:22:18.765Z,18.19
2018-11-05T14:25:43.596Z,18.85
2018-11-05T14:29:08.903Z,19.97
2018-11-05T14:32:33.376Z,20.63
2018-11-05T14:35:58.181Z,20.66
2018-11-05T14:39:22.897Z,19.88
2018-11-05T14:42:47.704Z,19.67
2018-11-05T14:46:12.521Z,19.36
2018-11-05T14:49:37.275Z,19.44
2018-11-05T14:53:02.004Z,19.15
2018-11-05T14:56:26.778Z,18.67
2018-11-05T14:59:51.576Z,18.34
2018-11-05T15:03:16.341Z,18.74
2018-11-05T15:06:41.013Z,19.20
2018-11-05T15:10:06.046Z,18.92
2018-11-05T15:13:30.800Z,18.79
2018-11-05T15:16:55.567Z,18.08
2018-11-05T15:20:21.902Z,17.82
2018-11-05T15:23:47.573Z,17.43
2018-11-05T15:27:12.609Z,17.33
2018-11-05T15:30:37.389Z,17.10
2018-11-05T15:34:02.117Z,16.83
2018-11-05T15:37:26.865Z,16.43
2018-11-05T15:40:51.543Z,16.37
2018-11-05T15:44:16.240Z,16.24
2018-11-05T15:47:41.489Z,16.23
2018-11-05T15:51:06.426Z,16.19
2018-11-05T15:54:31.387Z,16.13
2018-11-05T15:57:55.965Z,15.80
2018-11-05T16:01:20.641Z,15.81
2018-11-05T16:04:45.391Z,15.81
2018-11-05T16:08:10.098Z,15.56
2018-11-05T16:11:34.834Z,15.48
2018-11-05T16:14:59.725Z,15.31
2018-11-05T16:18:24.335Z,15.32
2018-11-05T16:21:49.064Z,15.29
2018-11-05T16:25:13.855Z,15.20
2018-11-05T16:28:38.574Z,15.07
2018-11-05T16:32:03.362Z,15.17
2018-11-05T16:35:28.166Z,15.08
2018-11-05T16:38:52.879Z,15.00
2018-11-05T16:42:17.591Z,14.96
2018-11-05T16:45:42.363Z,14.95
2018-11-05T16:49:07.325Z,14.94
2018-11-05T16:52:32.044Z,15.07
2018-11-05T16:55:56.765Z,15.08
2018-11-05T16:59:21.476Z,15.10
2018-11-05T17:02:47.056Z,14.92
2018-11-05T17:06:11.571Z,15.01
2018-11-05T17:09:36.319Z,15.04
2018-11-05T17:13:01.011Z,15.07
2018-11-05T17:16:25.753Z,15.03
2018-11-05T17:19:50.530Z,15.00
2018-11-05T17:23:15.266Z,15.08
2018-11-05T17:26:40.001Z,14.94
2018-11-05T17:30:05.299Z,14.83
2018-11-05T17:33:30.092Z,14.81
2018-11-05T17:36:54.847Z,14.79
2018-11-05T17:40:21.196Z,14.66
2018-11-05T17:43:45.824Z,14.59
2018-11-05T17:47:10.614Z,14.67
2018-11-05T17:50:36.491Z,14.67
2018-11-05T17:54:01.548Z,14.68
2018-11-05T17:57:26.358Z,14.67
2018-11-05T18:00:51.139Z,14.64
2018-11-05T18:04:15.967Z,14.60
2018-11-05T18:07:40.596Z,14.49
2018-11-05T18:11:05.644Z,14.72
2018-11-05T18:14:30.664Z,14.67
2018-11-05T18:17:55.501Z,14.77
2018-11-05T18:21:20.482Z,14.75
2018-11-05T18:24:45.427Z,14.77
2018-11-05T18:28:10.270Z,14.64
2018-11-05T18:31:35.695Z,14.62
2018-11-05T18:35:00.944Z,14.57
2018-11-05T18:38:25.751Z,14.40
2018-11-05T18:41:50.542Z,14.59
2018-11-05T18:45:15.406Z,14.52
2018-11-05T18:48:40.065Z,14.58
2018-11-05T18:52:04.860Z,14.60
2018-11-05T18:55:29.572Z,14.48
2018-11-05T18:58:54.298Z,14.49
2018-11-05T19:02:24.063Z,14.54
2018-11-05T19:05:48.756Z,14.66
2018-11-05T19:09:13.476Z,14.70
2018-11-05T19:12:38.253Z,14.64
2018-11-05T19:16:03.529Z,14.59
2018-11-05T19:19:28.269Z,14.71
2018-11-05T19:22:53.126Z,14.41
2018-11-05T19:26:17.859Z,14.54
2018-11-05T19:29:42.584Z,14.48
2018-11-05T19:33:08.064Z,14.52
2018-11-05T19:36:32.814Z,14.48
2018-11-05T19:39:57.620Z,14.48
2018-11-05T19:43:23.366Z,14.44
2018-11-05T19:46:48.063Z,14.39
2018-11-05T19:50:15.306Z,14.36
2018-11-05T19:53:40.135Z,14.50
2018-11-05T19:57:06.212Z,14.32
2018-11-05T20:00:31.370Z,14.01
2018-11-05T20:04:27.403Z,14.18
2018-11-05T20:07:52.921Z,14.07
2018-11-05T20:11:17.781Z,14.21
2018-11-05T20:14:42.460Z,14.13
2018-11-05T20:18:07.302Z,14.08
2018-11-05T20:21:32.100Z,14.03
2018-11-05T20:24:56.803Z,14.01
2018-11-05T20:28:23.427Z,14.14
2018-11-05T20:31:48.464Z,14.10
2018-11-05T20:35:13.000Z,14.01
2018-11-05T20:38:37.633Z,13.90
2018-11-05T20:42:02.360Z,13.75
2018-11-05T20:45:27.330Z,13.83
2018-11-05T20:48:52.058Z,13.82
2018-11-05T20:52:16.768Z,13.66
2018-11-05T20:55:41.768Z,13.73
2018-11-05T20:59:07.123Z,13.67
2018-11-05T21:02:31.971Z,13.68
2018-11-05T21:05:56.837Z,13.68
2018-11-05T21:09:21.548Z,13.68
2018-11-05T21:12:46.376Z,13.70
2018-11-05T21:16:11.122Z,13.75
2018-11-05T21:19:35.882Z,13.67
2018-11-05T21:23:00.710Z,13.50
2018-11-05T21:26:25.481Z,13.56
2018-11-05T21:29:50.221Z,13.90
2018-11-05T21:33:15.003Z,14.00
2018-11-05T21:36:39.841Z,14.04
2018-11-05T21:40:04.862Z,13.92
2018-11-05T21:43:29.625Z,14.06
2018-11-05T21:46:54.357Z,13.85
2018-11-05T21:50:19.856Z,14.02
2018-11-05T21:53:44.664Z,14.00
2018-11-05T21:57:09.418Z,14.00
2018-11-05T22:00:34.179Z,13.84
2018-11-05T22:03:58.927Z,14.12
2018-11-05T22:07:23.734Z,14.08
2018-11-05T22:10:48.478Z,14.24
2018-11-05T22:14:13.234Z,14.14
2018-11-05T22:17:37.973Z,14.16
2018-11-05T22:21:02.687Z,14.08
2018-11-05T22:24:27.408Z,13.97
2018-11-05T22:27:53.941Z,14.11
2018-11-05T22:31:18.685Z,14.08
2018-11-05T22:34:43.410Z,13.76
2018-11-05T22:38:08.330Z,13.87
2018-11-05T22:41:33.009Z,13.85
2018-11-05T22:44:57.739Z,13.93
2018-11-05T22:48:22.465Z,13.69
2018-11-05T22:51:47.209Z,13.97
2018-11-05T22:55:12.055Z,13.92
2018-11-05T22:58:36.756Z,13.98
2018-11-05T23:02:01.801Z,13.81
2018-11-05T23:05:26.704Z,13.64
2018-11-05T23:08:51.408Z,13.80
2018-11-05T23:12:16.138Z,13.46
2018-11-05T23:15:41.015Z,13.67
2018-11-05T23:19:05.951Z,13.61
2018-11-05T23:22:30.661Z,13.68
2018-11-05T23:25:55.367Z,13.51
2018-11-05T23:29:20.098Z,13.60
2018-11-05T23:32:44.793Z,13.67
2018-11-05T23:36:09.538Z,13.50
2018-11-05T23:39:34.304Z,13.51
2018-11-05T23:42:59.040Z,13.62
2018-11-05T23:46:23.746Z,13.37
2018-11-05T23:49:48.492Z,13.28
2018-11-05T23:53:13.223Z,13.43
2018-11-05T23:56:37.882Z,13.25
